Time;durP1;ratioP1;P1;durP2;ratioP2;P2;SDS_P1;SDS_P2;PMS_P1;PMS_P2;Temp;Humidity;BMP_temperature;BMP_pressure;BME280_temperature;BME280_humidity;BME280_pressure;Samples;Min_cycle;Max_cycle;Signal;HPM_P1;HPM_P2
2022/12/17 13:07:45;;;;;;;27.38;13.55;;;15.30;40.60;;;;;;4994420;28;44909;-60
2022/12/17 13:10:23;;;;;;;24.75;13.13;;;15.40;40.40;;;;;;4993217;28;45270;-62
2022/12/17 13:12:49;;;;;;;29.02;14.13;;;15.40;40.20;;;;;;4987499;28;46136;-61
2022/12/17 13:15:22;;;;;;;27.90;13.88;;;15.50;40.40;;;;;;4991386;28;44724;-61
2022/12/17 13:17:58;;;;;;;;;;;15.60;40.20;;;;;;4970472;28;45311;-62
2022/12/17 13:20:31;;;;;;;25.17;12.70;;;15.70;39.50;;;;;;5004486;28;45302;-62
2022/12/17 13:23:08;;;;;;;25.05;13.35;;;15.70;40.00;;;;;;4988544;28;46210;-62
2022/12/17 13:25:33;;;;;;;23.40;13.02;;;15.80;39.90;;;;;;4990307;28;45517;-62
2022/12/17 13:27:59;;;;;;;26.00;13.38;;;15.80;40.00;;;;;;4989461;28;44961;-61
2022/12/17 13:30:35;;;;;;;24.88;13.43;;;15.90;40.00;;;;;;4979643;28;44725;-61
2022/12/17 13:33:07;;;;;;;27.95;14.07;;;16.00;39.80;;;;;;4989489;28;45210;-62
2022/12/17 13:36:16;;;;;;;23.17;13.07;;;16.10;39.80;;;;;;4990068;28;45077;-62
2022/12/17 13:39:03;;;;;;;24.05;12.88;;;16.10;39.40;;;;;;4961109;28;45205;-63
2022/12/17 13:41:31;;;;;;;23.23;12.55;;;16.20;39.50;;;;;;4956005;28;45628;-61
2022/12/17 13:44:01;;;;;;;25.45;12.48;;;16.30;39.80;;;;;;4972952;28;45063;-62
2022/12/17 13:46:27;;;;;;;23.45;11.98;;;16.30;39.70;;;;;;4974288;28;45341;-62
2022/12/17 13:48:53;;;;;;;;;;;16.30;39.60;;;;;;4990483;28;45387;-62
2022/12/17 13:51:19;;;;;;;;;;;16.40;39.00;;;;;;4988149;28;45574;-61
2022/12/17 13:53:52;;;;;;;;;;;16.50;38.80;;;;;;4989668;28;47147;-62
2022/12/17 13:56:36;;;;;;;;;;;16.50;38.80;;;;;;5003294;28;45141;-62
2022/12/17 13:59:02;;;;;;;;;;;16.60;38.80;;;;;;4995336;28;45441;-61
2022/12/17 14:01:28;;;;;;;;;;;16.60;38.70;;;;;;4992119;28;45479;-62
2022/12/17 14:03:54;;;;;;;;;;;16.70;38.70;;;;;;4990780;28;45938;-63
2022/12/17 14:06:20;;;;;;;;;;;16.70;38.70;;;;;;4987829;28;45312;-63
2022/12/17 14:08:46;;;;;;;;;;;16.80;38.60;;;;;;4991494;28;45210;-63
2022/12/17 14:13:55;;;;;;;;;;;16.90;38.70;;;;;;4990534;28;45981;-63
2022/12/17 14:16:21;;;;;;;;;;;16.90;38.50;;;;;;4991997;28;45163;-62
2022/12/17 14:18:53;;;;;;;;;;;16.90;38.50;;;;;;4995743;28;46389;-63
2022/12/17 14:21:18;;;;;;;;;;;17.00;38.50;;;;;;5006537;28;45342;-61
2022/12/17 14:23:44;;;;;;;;;;;17.00;38.50;;;;;;4991062;28;45352;-62
2022/12/17 14:26:10;;;;;;;;;;;17.00;38.40;;;;;;4987641;28;45283;-60
2022/12/17 14:28:36;;;;;;;;;;;17.00;38.50;;;;;;5007908;28;45439;-61
2022/12/17 14:31:06;;;;;;;;;;;17.00;38.40;;;;;;5006981;28;45522;-61
2022/12/17 14:33:35;;;;;;;;;;;16.90;38.50;;;;;;4993896;28;46331;-61
2022/12/17 14:36:04;;;;;;;;;;;16.80;38.70;;;;;;4993043;28;45340;-61
2022/12/17 14:38:30;;;;;;;;;;;16.80;39.00;;;;;;4988503;28;45345;-61
2022/12/17 14:40:59;;;;;;;;;;;16.80;39.00;;;;;;4994358;28;45567;-62
2022/12/17 14:43:26;;;;;;;;;;;16.80;38.90;;;;;;4996357;28;45955;-61
2022/12/17 14:51:26;;;;;;;;;;;17.00;38.70;;;;;;5002821;28;45258;-60
2022/12/17 14:53:52;;;;;;;;;;;17.10;38.70;;;;;;4992707;28;47271;-62
2022/12/17 14:56:21;;;;;;;;;;;17.10;38.50;;;;;;4993780;28;44912;-63
2022/12/17 14:58:46;;;;;;;;;;;17.20;38.60;;;;;;4989951;28;45372;-62
2022/12/17 15:01:12;;;;;;;;;;;17.20;38.50;;;;;;5006330;28;46215;-61
2022/12/17 15:03:38;;;;;;;;;;;17.20;38.50;;;;;;5001910;28;46902;-60
2022/12/17 15:06:05;;;;;;;;;;;17.30;38.50;;;;;;4988662;28;45339;-62
2022/12/17 15:08:46;;;;;;;;;;;17.30;38.30;;;;;;4992518;28;45004;-62
2022/12/17 15:11:12;;;;;;;;;;;17.40;38.40;;;;;;4993669;28;45755;-61
2022/12/17 15:13:37;;;;;;;;;;;17.40;38.40;;;;;;4991972;28;45147;-60
2022/12/17 15:16:03;;;;;;;;;;;17.40;38.30;;;;;;5006620;28;45271;-62
2022/12/17 15:18:29;;;;;;;;;;;17.40;38.30;;;;;;4992448;28;45523;-60
2022/12/17 15:20:54;;;;;;;;;;;17.50;38.30;;;;;;4995170;28;45011;-62
2022/12/17 15:23:20;;;;;;;;;;;17.60;38.30;;;;;;5007902;28;47018;-62
2022/12/17 15:25:46;;;;;;;;;;;17.60;38.30;;;;;;4992042;28;44668;-63
2022/12/17 15:28:12;;;;;;;;;;;17.60;38.30;;;;;;4992485;28;45553;-62
2022/12/17 15:30:38;;;;;;;;;;;17.60;38.20;;;;;;4989746;28;45244;-61
2022/12/17 15:33:07;;;;;;;;;;;17.70;38.20;;;;;;4992362;28;45808;-62
2022/12/17 15:35:33;;;;;;;;;;;17.60;38.20;;;;;;4994279;28;45270;-62
2022/12/17 15:37:58;;;;;;;;;;;17.60;38.20;;;;;;4992729;28;45434;-63
2022/12/17 15:40:23;;;;;;;;;;;17.50;38.40;;;;;;4990584;28;45389;-62
2022/12/17 15:45:33;;;;;;;;;;;17.30;38.70;;;;;;5005490;28;45229;-61
2022/12/17 15:47:58;;;;;;;;;;;17.40;38.70;;;;;;4991061;28;45537;-61
2022/12/17 15:50:24;;;;;;;;;;;17.40;38.70;;;;;;4988645;28;46008;-62
2022/12/17 15:52:49;;;;;;;;;;;17.40;39.10;;;;;;4988862;28;46144;-63
2022/12/17 15:55:15;;;;;;;;;;;17.50;38.50;;;;;;4989108;28;45319;-62
2022/12/17 15:57:40;;;;;;;;;;;17.60;38.50;;;;;;4993665;28;45286;-62
2022/12/17 16:00:06;;;;;;;;;;;17.50;38.40;;;;;;4987085;28;45690;-63
2022/12/17 16:02:32;;;;;;;;;;;17.60;38.40;;;;;;4986425;28;46967;-62
2022/12/17 16:04:57;;;;;;;;;;;17.70;38.40;;;;;;4985937;28;46294;-61
2022/12/17 16:07:23;;;;;;;;;;;17.70;38.30;;;;;;4994994;28;45148;-61
2022/12/17 16:09:48;;;;;;;;;;;17.70;38.30;;;;;;4995959;28;45482;-60
2022/12/17 16:12:14;;;;;;;;;;;17.80;38.30;;;;;;4986713;28;45248;-61
2022/12/17 16:14:39;;;;;;;;;;;17.80;38.20;;;;;;4989517;28;45281;-61
2022/12/17 16:17:04;;;;;;;;;;;17.80;38.70;;;;;;4992309;28;45220;-60
2022/12/17 16:19:30;;;;;;;;;;;17.90;38.30;;;;;;4990119;28;45191;-61
2022/12/17 16:21:55;;;;;;;13.17;7.60;;;17.90;38.20;;;;;;4991781;28;46716;-61
2022/12/17 16:24:21;;;;;;;15.18;7.93;;;17.90;38.90;;;;;;4995022;28;45501;-62
2022/12/17 16:26:47;;;;;;;12.52;6.85;;;18.00;38.90;;;;;;4996582;28;45289;-62
2022/12/17 16:29:12;;;;;;;13.95;8.35;;;18.00;38.80;;;;;;4994213;28;45703;-62
2022/12/17 16:31:38;;;;;;;15.10;7.55;;;17.90;38.80;;;;;;4990092;28;46186;-63
2022/12/17 16:34:10;;;;;;;13.80;7.35;;;17.90;39.10;;;;;;4996567;28;45483;-63
2022/12/17 16:36:35;;;;;;;13.00;7.55;;;17.90;39.10;;;;;;4997754;28;45482;-64
2022/12/17 16:39:01;;;;;;;12.57;7.72;;;18.00;39.10;;;;;;5010542;28;45719;-61
2022/12/17 16:41:26;;;;;;;14.32;8.38;;;18.00;38.90;;;;;;5009052;28;46206;-64
2022/12/17 16:43:52;;;;;;;12.68;7.35;;;18.10;38.90;;;;;;4995272;28;45413;-64
2022/12/17 16:46:31;;;;;;;12.32;7.38;;;18.20;38.80;;;;;;4989538;28;45424;-64
2022/12/17 16:48:58;;;;;;;14.18;7.88;;;18.30;38.50;;;;;;4994110;28;45155;-64
2022/12/17 16:51:25;;;;;;;14.73;7.25;;;18.30;38.60;;;;;;4992802;28;45524;-62
2022/12/17 16:53:50;;;;;;;12.80;7.65;;;18.40;38.70;;;;;;4998981;28;45224;-61
2022/12/17 16:56:19;;;;;;;14.32;8.13;;;18.60;38.60;;;;;;4997707;28;45444;-62
2022/12/17 16:58:44;;;;;;;13.40;7.55;;;18.70;38.40;;;;;;5000542;28;45545;-64
2022/12/17 17:01:10;;;;;;;12.27;7.57;;;18.80;38.30;;;;;;4991121;28;45908;-65
2022/12/17 17:03:42;;;;;;;13.57;7.63;;;18.90;38.30;;;;;;4999470;28;46276;-64
2022/12/17 17:06:08;;;;;;;12.88;7.20;;;19.00;38.10;;;;;;4982652;28;45367;-63
2022/12/17 17:08:36;;;;;;;12.68;7.15;;;19.10;38.10;;;;;;5001540;28;45273;-64
2022/12/17 17:11:23;;;;;;;12.90;7.75;;;19.30;38.00;;;;;;4996654;28;46347;-63
2022/12/17 17:13:52;;;;;;;10.90;6.93;;;19.30;37.50;;;;;;4996228;28;45248;-63
2022/12/17 17:16:19;;;;;;;11.40;6.55;;;19.40;38.00;;;;;;4980724;28;45228;-57
2022/12/17 17:18:44;;;;;;;13.43;6.57;;;19.30;37.80;;;;;;4998620;28;45321;-54
2022/12/17 17:21:19;;;;;;;12.90;5.88;;;19.20;38.10;;;;;;4993323;28;46233;-63
2022/12/17 17:23:45;;;;;;;8.90;5.95;;;19.20;38.20;;;;;;4997412;28;44599;-59
2022/12/17 17:26:11;;;;;;;10.70;6.93;;;19.30;38.30;;;;;;4994182;28;45604;-55
2022/12/17 17:28:36;;;;;;;11.88;6.88;;;19.30;38.20;;;;;;4999388;28;45415;-52
2022/12/17 17:31:03;;;;;;;11.93;6.90;;;19.40;38.10;;;;;;4991615;28;45879;-53
2022/12/17 17:33:33;;;;;;;11.52;6.45;;;19.50;38.00;;;;;;4998584;28;45318;-53
2022/12/17 17:36:06;;;;;;;11.15;6.30;;;19.60;38.10;;;;;;4995581;28;44778;-57
2022/12/17 17:38:33;;;;;;;9.50;6.25;;;19.70;37.80;;;;;;4994796;28;45425;-56
2022/12/17 17:40:59;;;;;;;11.48;6.65;;;19.80;37.90;;;;;;4994043;28;46426;-54
2022/12/17 17:43:24;;;;;;;13.55;7.53;;;19.90;37.90;;;;;;4992437;28;45274;-55
2022/12/17 17:45:50;;;;;;;10.23;6.40;;;20.00;37.80;;;;;;4993210;28;45660;-53
2022/12/17 17:48:15;;;;;;;12.90;7.10;;;20.00;37.70;;;;;;4994485;28;45440;-56
2022/12/17 17:50:41;;;;;;;12.30;7.15;;;20.10;37.70;;;;;;4995673;28;46204;-49
2022/12/17 17:53:07;;;;;;;9.52;6.18;;;20.20;37.70;;;;;;4994411;28;45545;-57
2022/12/17 17:55:36;;;;;;;11.77;6.93;;;20.20;37.70;;;;;;4994214;28;45199;-49
2022/12/17 17:58:01;;;;;;;11.10;6.63;;;20.30;37.50;;;;;;4992855;28;45397;-49
2022/12/17 18:00:27;;;;;;;12.18;7.15;;;20.20;37.50;;;;;;4994656;28;46140;-59
2022/12/17 18:02:52;;;;;;;11.00;7.10;;;20.20;37.60;;;;;;4992995;28;44866;-54
2022/12/17 18:05:18;;;;;;;11.43;6.50;;;20.10;37.80;;;;;;4993211;28;45887;-56
2022/12/17 18:07:43;;;;;;;9.50;6.25;;;20.10;37.80;;;;;;5009427;28;45019;-57
2022/12/17 18:10:09;;;;;;;10.43;6.65;;;20.20;37.90;;;;;;4992585;28;45932;-56
2022/12/17 18:15:18;;;;;;;10.82;6.30;;;20.40;37.70;;;;;;4989495;28;45695;-52
2022/12/17 18:17:46;;;;;;;12.75;5.97;;;20.40;37.60;;;;;;4995911;28;45624;-57
2022/12/17 18:20:12;;;;;;;9.27;6.40;;;20.50;38.20;;;;;;4992057;28;45972;-59
2022/12/17 18:22:37;;;;;;;10.32;6.65;;;20.60;37.50;;;;;;4993734;28;45397;-57
2022/12/17 18:25:03;;;;;;;9.70;6.13;;;20.70;37.40;;;;;;4990948;28;45317;-57
2022/12/17 18:27:29;;;;;;;9.73;6.05;;;20.80;37.40;;;;;;4994825;28;45246;-59
2022/12/17 18:29:55;;;;;;;10.25;6.18;;;20.70;37.30;;;;;;4986038;28;45923;-64
2022/12/17 18:32:20;;;;;;;10.32;6.05;;;20.60;37.20;;;;;;4987907;28;45143;-58
2022/12/17 18:34:46;;;;;;;9.68;6.18;;;20.50;37.30;;;;;;4994317;28;46529;-62
2022/12/17 18:37:11;;;;;;;8.98;6.00;;;20.30;37.40;;;;;;4989473;28;45046;-60
2022/12/17 18:39:37;;;;;;;8.25;5.85;;;20.20;37.70;;;;;;4987374;28;46124;-57
2022/12/17 18:44:47;;;;;;;10.70;5.90;;;19.90;38.20;;;;;;4993009;28;45061;-57
2022/12/17 18:47:12;;;;;;;10.95;6.80;;;19.70;38.40;;;;;;4990298;28;45441;-60
2022/12/17 18:49:38;;;;;;;11.57;7.05;;;19.60;38.50;;;;;;4987064;28;47166;-60
2022/12/17 18:52:04;;;;;;;10.52;6.68;;;19.50;38.60;;;;;;4988392;28;45460;-59
2022/12/17 18:54:30;;;;;;;9.95;6.05;;;19.40;38.80;;;;;;4994401;28;44854;-61
2022/12/17 18:56:56;;;;;;;10.32;6.68;;;19.30;39.00;;;;;;4989680;28;46931;-59
2022/12/17 18:59:23;;;;;;;9.45;6.28;;;19.10;39.10;;;;;;4988382;28;46025;-57
2022/12/17 19:01:49;;;;;;;14.13;7.60;;;19.00;39.30;;;;;;4989433;28;45434;-63
2022/12/17 19:04:16;;;;;;;10.13;6.72;;;18.90;39.50;;;;;;4987961;28;45624;-57
2022/12/17 19:06:42;;;;;;;9.13;6.35;;;18.80;39.50;;;;;;4992424;28;45749;-57
2022/12/17 19:09:14;;;;;;;10.73;6.45;;;18.70;39.70;;;;;;4989780;28;46933;-56
2022/12/17 19:11:40;;;;;;;10.10;6.32;;;18.60;39.80;;;;;;4981080;28;45555;-60
2022/12/17 19:14:05;;;;;;;11.60;5.82;;;18.50;39.90;;;;;;4994280;28;45406;-61
2022/12/17 19:16:31;;;;;;;9.43;6.07;;;18.40;40.00;;;;;;4994335;28;45804;-60
2022/12/17 19:18:58;;;;;;;11.38;6.47;;;18.30;40.10;;;;;;4991372;28;45952;-58
2022/12/17 19:21:24;;;;;;;10.90;6.55;;;18.20;40.20;;;;;;4992668;28;45564;-55
2022/12/17 19:23:53;;;;;;;10.18;6.68;;;18.10;40.20;;;;;;4988605;28;45392;-59
2022/12/17 19:26:19;;;;;;;10.50;6.05;;;18.10;40.40;;;;;;4991180;28;44735;-56
2022/12/17 19:28:47;;;;;;;11.23;6.35;;;18.00;40.50;;;;;;4993022;28;45972;-59
2022/12/17 19:31:13;;;;;;;9.75;6.07;;;17.80;40.60;;;;;;4988978;28;45206;-57
2022/12/17 19:33:38;;;;;;;9.38;6.53;;;17.80;40.70;;;;;;4993841;28;45552;-54
2022/12/17 19:36:06;;;;;;;10.82;6.13;;;17.70;40.80;;;;;;4996068;28;45447;-60
2022/12/17 19:38:32;;;;;;;11.63;6.50;;;17.60;40.90;;;;;;4994164;28;46267;-61
2022/12/17 19:41:14;;;;;;;9.88;6.43;;;17.50;41.00;;;;;;4993748;28;45362;-55
2022/12/17 19:43:40;;;;;;;10.15;6.07;;;17.40;41.20;;;;;;4989817;28;45291;-53
2022/12/17 19:46:11;;;;;;;11.85;6.28;;;17.30;41.30;;;;;;4994604;28;46293;-56
2022/12/17 19:48:37;;;;;;;9.77;6.30;;;17.20;41.30;;;;;;4993740;28;46325;-59
2022/12/17 19:51:03;;;;;;;9.23;6.45;;;17.10;41.40;;;;;;4990056;28;46726;-58
2022/12/17 19:53:29;;;;;;;11.35;6.93;;;17.10;41.50;;;;;;4994621;28;45069;-57
2022/12/17 19:55:56;;;;;;;10.45;6.65;;;17.00;41.60;;;;;;4994487;28;45406;-70
2022/12/17 19:58:22;;;;;;;14.05;7.15;;;16.90;41.60;;;;;;4994259;28;46144;-62
2022/12/17 20:00:47;;;;;;;10.75;6.97;;;16.80;41.60;;;;;;4991083;28;45549;-60
2022/12/17 20:03:13;;;;;;;10.48;6.60;;;16.80;41.80;;;;;;4997356;28;45123;-50
2022/12/17 20:05:42;;;;;;;9.73;6.50;;;16.70;41.80;;;;;;4994328;28;45543;-60
2022/12/17 20:08:08;;;;;;;9.57;6.10;;;16.60;41.90;;;;;;4992018;28;45800;-55
2022/12/17 20:10:33;;;;;;;12.52;6.57;;;16.50;41.90;;;;;;4993988;28;45080;-61
2022/12/17 20:12:59;;;;;;;9.65;6.40;;;16.50;42.00;;;;;;4993357;28;45348;-53
2022/12/17 20:15:24;;;;;;;10.63;6.72;;;16.40;42.10;;;;;;4990780;28;46025;-57
2022/12/17 20:17:50;;;;;;;10.60;7.10;;;16.40;42.20;;;;;;4994292;28;46798;-64
2022/12/17 20:20:15;;;;;;;14.05;7.90;;;16.30;42.20;;;;;;4976290;28;45274;-52
2022/12/17 20:22:41;;;;;;;11.43;7.13;;;16.30;42.30;;;;;;4993048;28;45482;-56
2022/12/17 20:25:10;;;;;;;10.10;6.75;;;16.20;42.30;;;;;;4993624;28;45419;-60
2022/12/17 20:27:36;;;;;;;10.68;6.47;;;16.10;42.50;;;;;;4990812;28;46442;-57
2022/12/17 20:30:03;;;;;;;12.05;7.07;;;16.00;42.60;;;;;;4992309;28;45322;-59
2022/12/17 20:32:28;;;;;;;9.95;6.18;;;16.00;42.60;;;;;;4993095;28;45589;-57
2022/12/17 20:34:54;;;;;;;9.95;6.43;;;15.90;42.70;;;;;;4998570;28;45296;-56
2022/12/17 20:37:19;;;;;;;11.75;6.95;;;15.80;42.70;;;;;;4994000;28;46654;-60
2022/12/17 20:39:45;;;;;;;12.07;7.18;;;15.80;42.80;;;;;;4991781;28;45187;-63
2022/12/17 20:42:11;;;;;;;10.98;6.57;;;15.70;42.90;;;;;;4993910;28;44948;-55
2022/12/17 20:44:36;;;;;;;10.88;6.28;;;15.60;42.90;;;;;;4987476;28;45243;-55
2022/12/17 20:47:02;;;;;;;10.27;6.80;;;15.60;43.00;;;;;;4991717;28;45835;-65
2022/12/17 20:49:27;;;;;;;10.65;6.63;;;15.50;43.10;;;;;;4989512;28;45729;-58
2022/12/17 20:51:53;;;;;;;11.10;6.63;;;15.50;43.20;;;;;;4992384;28;45281;-59
2022/12/17 20:54:19;;;;;;;10.77;7.18;;;15.40;43.20;;;;;;4990202;28;44992;-63
2022/12/17 20:56:44;;;;;;;11.77;6.35;;;15.40;43.30;;;;;;4995104;28;46876;-53
2022/12/17 20:59:14;;;;;;;12.32;6.85;;;15.30;43.30;;;;;;4995057;28;44866;-61
2022/12/17 21:01:40;;;;;;;12.13;6.97;;;15.30;43.50;;;;;;4987872;28;45405;-56
2022/12/17 21:04:06;;;;;;;12.85;7.30;;;15.20;43.50;;;;;;4975607;28;45317;-63
2022/12/17 21:06:36;;;;;;;10.52;6.50;;;15.20;43.60;;;;;;4991129;28;46067;-55
2022/12/17 21:09:02;;;;;;;10.18;6.82;;;15.10;43.60;;;;;;4998644;28;45028;-60
2022/12/17 21:11:29;;;;;;;9.55;6.13;;;15.10;43.60;;;;;;4993649;28;45566;-55
2022/12/17 21:13:54;;;;;;;9.63;6.60;;;15.00;43.80;;;;;;4991565;28;45353;-61
2022/12/17 21:16:22;;;;;;;10.32;6.35;;;14.90;43.70;;;;;;4994983;28;45947;-56
2022/12/17 21:18:47;;;;;;;11.85;7.22;;;14.90;43.80;;;;;;4995811;28;45260;-53
2022/12/17 21:21:17;;;;;;;10.70;7.07;;;14.80;43.80;;;;;;4961669;28;45431;-61
2022/12/17 21:23:42;;;;;;;10.32;6.85;;;14.80;44.00;;;;;;4993682;28;44761;-55
2022/12/17 21:26:11;;;;;;;10.88;6.90;;;14.80;44.00;;;;;;4991687;28;46050;-64
2022/12/17 21:28:37;;;;;;;9.73;6.05;;;14.70;44.00;;;;;;4990225;28;45219;-58
2022/12/17 21:31:03;;;;;;;11.57;6.82;;;14.70;44.10;;;;;;4995836;28;45394;-54
2022/12/17 21:33:28;;;;;;;10.52;6.50;;;14.60;44.10;;;;;;4990087;28;45140;-65
2022/12/17 21:36:01;;;;;;;11.70;7.15;;;14.60;44.20;;;;;;4990594;28;45904;-61
2022/12/17 21:38:27;;;;;;;12.38;7.05;;;14.50;44.30;;;;;;4994307;28;45296;-61
2022/12/17 21:40:53;;;;;;;11.05;7.18;;;14.50;44.30;;;;;;4993510;28;45092;-60
2022/12/17 21:43:19;;;;;;;10.63;6.75;;;14.50;44.40;;;;;;4981527;28;46553;-54
2022/12/17 21:45:44;;;;;;;11.30;7.10;;;14.40;44.40;;;;;;4994035;28;46296;-58
2022/12/17 21:48:10;;;;;;;12.63;7.35;;;14.40;44.50;;;;;;4993788;28;45203;-59
2022/12/17 21:50:42;;;;;;;12.80;7.68;;;14.30;44.40;;;;;;4990513;28;45401;-61
2022/12/17 21:53:08;;;;;;;9.77;6.87;;;14.30;44.50;;;;;;4973864;28;45051;-51
2022/12/17 21:55:34;;;;;;;11.98;7.35;;;14.20;44.50;;;;;;4994053;28;45534;-61
2022/12/17 21:58:00;;;;;;;12.07;7.45;;;14.20;44.50;;;;;;4993820;28;44954;-65
